Aérodrome :
LOGIN :

S'inscrire | Disclaimer

   EN    FR    IT 

 










Légende :    VFR   VFR Marginal   IFR   IFR Intensif   IFR Très Intensif
Visi : 
Plafond : 
>= 8 km
>= 3000ft
5 à 8 km
1000 à 3000 ft
1500m à 5 km
500 à 1000 ft
800 à 1500m
200 à 500 ft
< 800m
< 200 ft
Symboles :   Orages  Brouillard  Fortes neiges  Fortes précipitations  Vent > 20 kt
SIGMETs :   Divers  Orages  Givrage  Turbulence  Onde Orograph.  Cendres Volcan.







- Altitude de l'aérodrome : 25 ft
- Code IATA : TPS


LICT - Vincenzo Florio Trapani

DERNIER METAR :
  • 131855Z 11002KT CAVOK 15/13 Q1027 RMK FEW FEW200 VIS MIN 9999 WIND THR13 09004KT BLU

METARs EXPIRÉS :
  • 131755Z 05002KT CAVOK 16/15 Q1027 RMK FEW FEW200 VIS MIN 9999 WIND THR13 04004KT BLU
  • 131655Z 32002KT 9999 FEW023 18/16 Q1027 RMK SCT SCT200 VIS MIN 9999 WIND THR13 33006KT BLU

TAF TAF LICT
Valide du 13 à 18h jusqu'au 14 à 03h UTC


131700Z 1318/1403 12006KT 9999 SCT020
Pas de NOTAMs connus pour ce terrain.



MET'MAP, la Météo Aéronautique d'un coup d'oeil ! - Copyright ORBIFLY Décembre 2007 - Disclaimer

ORBIFLY MET'MAP TEAM :

Programmation & Développement : Alexandra Zaïnal
Conception & Développement : Baudouin d'Aumeries
Co-Programmation & Développement : Marc-Olivier Méhu
Soutien technique & logistique : Manuel Goepfert

Contact : metmap@orbifly.com




SOURCES & CREDITS :

   NOAA